createdAt,value
2019-03-02T00:01:35.391Z,7.20
2019-03-02T00:04:09.682Z,7.20
2019-03-02T00:06:37.023Z,7.30
2019-03-02T00:09:07.974Z,7.40
2019-03-02T00:11:38.016Z,7.30
2019-03-02T00:14:08.018Z,7.30
2019-03-02T00:16:39.753Z,7.30
2019-03-02T00:19:09.746Z,7.30
2019-03-02T00:21:39.755Z,7.20
2019-03-02T00:24:09.842Z,7.10
2019-03-02T00:26:42.851Z,7.20
2019-03-02T00:29:11.970Z,7.30
2019-03-02T00:31:42.148Z,7.40
2019-03-02T00:34:12.367Z,7.40
2019-03-02T00:36:42.321Z,7.30
2019-03-02T00:39:15.611Z,7.10
2019-03-02T00:41:43.955Z,6.90
2019-03-02T00:44:13.999Z,6.90
2019-03-02T00:46:44.053Z,6.50
2019-03-02T00:49:14.061Z,6.40
2019-03-02T00:51:46.314Z,6.30
2019-03-02T00:54:15.666Z,6.20
2019-03-02T00:56:45.676Z,6.40
2019-03-02T00:59:15.640Z,6.40
2019-03-02T01:01:45.669Z,6.60
2019-03-02T01:04:15.616Z,6.60
2019-03-02T01:06:48.775Z,6.70
2019-03-02T01:09:17.232Z,6.80
2019-03-02T01:11:47.178Z,6.70
2019-03-02T01:14:17.205Z,7.00
2019-03-02T01:16:47.240Z,6.90
2019-03-02T01:19:17.637Z,6.80
2019-03-02T01:21:48.605Z,6.80
2019-03-02T01:24:18.549Z,6.60
2019-03-02T01:26:48.586Z,6.50
2019-03-02T01:29:20.407Z,6.60
2019-03-02T01:31:50.541Z,6.70
2019-03-02T01:34:20.502Z,6.50
2019-03-02T01:36:50.438Z,6.60
2019-03-02T01:39:20.456Z,6.70
2019-03-02T01:41:50.960Z,6.80
2019-03-02T01:44:22.046Z,6.80
2019-03-02T01:46:51.998Z,6.80
2019-03-02T01:49:21.963Z,6.80
2019-03-02T01:51:54.719Z,6.90
2019-03-02T01:54:23.576Z,6.90
2019-03-02T01:56:53.597Z,6.90
2019-03-02T01:59:23.619Z,7.00
2019-03-02T02:01:56.518Z,7.00
2019-03-02T02:04:25.384Z,6.90
2019-03-02T02:06:55.289Z,7.00
2019-03-02T02:09:25.249Z,7.00
2019-03-02T02:11:55.202Z,7.10
2019-03-02T02:14:25.211Z,6.90
2019-03-02T02:16:55.243Z,6.90
2019-03-02T02:19:25.279Z,6.80
2019-03-02T02:21:55.210Z,6.70
2019-03-02T02:24:25.755Z,6.90
2019-03-02T02:26:55.810Z,6.90
2019-03-02T02:29:25.779Z,6.90
2019-03-02T02:31:55.721Z,7.00
2019-03-02T02:34:25.735Z,7.00
2019-03-02T02:36:58.082Z,6.80
2019-03-02T02:39:29.083Z,6.80
2019-03-02T02:42:00.164Z,6.90
2019-03-02T02:44:33.042Z,6.70
2019-03-02T02:47:02.304Z,6.60
2019-03-02T02:49:32.292Z,6.60
2019-03-02T02:52:02.231Z,6.50
2019-03-02T02:54:32.349Z,6.60
2019-03-02T02:57:02.327Z,6.60
2019-03-02T02:59:34.084Z,6.80
2019-03-02T03:02:06.432Z,6.80
2019-03-02T03:04:38.185Z,6.80
2019-03-02T03:07:12.499Z,6.70
2019-03-02T03:10:07.897Z,6.70
2019-03-02T03:12:37.920Z,6.60
2019-03-02T03:15:07.976Z,6.60
2019-03-02T03:17:38.001Z,6.40
2019-03-02T03:20:10.356Z,6.40
2019-03-02T03:22:40.933Z,6.30
2019-03-02T03:25:14.026Z,6.30
2019-03-02T03:27:47.630Z,6.30
2019-03-02T03:30:14.594Z,6.10
2019-03-02T03:32:54.698Z,5.90
2019-03-02T03:35:17.820Z,6.10
2019-03-02T03:37:51.257Z,5.90
2019-03-02T03:40:20.069Z,6.00
2019-03-02T03:42:50.925Z,6.30
2019-03-02T03:45:21.041Z,6.30
2019-03-02T03:47:51.258Z,5.90
2019-03-02T03:50:21.214Z,5.90
2019-03-02T03:52:51.151Z,6.10
2019-03-02T03:55:25.096Z,6.10
2019-03-02T03:57:55.610Z,6.30
2019-03-02T04:00:24.385Z,6.10
2019-03-02T04:02:54.316Z,6.00
2019-03-02T04:05:24.339Z,5.90
2019-03-02T04:07:54.291Z,6.00
2019-03-02T04:10:27.461Z,6.10
2019-03-02T04:13:04.145Z,6.10
2019-03-02T04:15:27.615Z,6.10
2019-03-02T04:17:57.614Z,6.10
2019-03-02T04:20:33.967Z,5.90
2019-03-02T04:23:06.817Z,5.80
2019-03-02T04:25:36.928Z,5.90
2019-03-02T04:28:06.870Z,5.90
2019-03-02T04:30:36.906Z,6.00
2019-03-02T04:33:07.616Z,6.20
2019-03-02T04:35:37.701Z,6.40
2019-03-02T04:38:07.730Z,6.10
2019-03-02T04:40:37.753Z,5.90
2019-03-02T04:43:07.706Z,5.70
2019-03-02T04:45:39.767Z,5.90
2019-03-02T04:48:09.383Z,6.20
2019-03-02T04:50:39.425Z,6.30
2019-03-02T04:53:09.356Z,6.20
2019-03-02T04:55:39.378Z,5.90
2019-03-02T04:58:11.981Z,5.90
2019-03-02T05:00:41.034Z,5.90
2019-03-02T05:03:11.088Z,6.20
2019-03-02T05:05:43.441Z,6.30
2019-03-02T05:08:12.597Z,6.10
2019-03-02T05:10:42.694Z,6.20
2019-03-02T05:13:12.653Z,6.20
2019-03-02T05:15:42.656Z,6.00
2019-03-02T05:18:14.765Z,5.80
2019-03-02T05:20:44.652Z,5.90
2019-03-02T05:23:14.766Z,6.10
2019-03-02T05:25:44.883Z,6.00
2019-03-02T05:28:14.828Z,6.00
2019-03-02T05:30:44.765Z,6.00
2019-03-02T05:33:14.893Z,5.90
2019-03-02T05:35:47.771Z,5.80
2019-03-02T05:38:16.511Z,5.90
2019-03-02T05:40:46.450Z,5.90
2019-03-02T05:43:16.502Z,6.10
2019-03-02T05:45:46.967Z,6.20
2019-03-02T05:48:16.972Z,6.20
2019-03-02T05:50:46.901Z,6.20
2019-03-02T05:53:17.150Z,6.40
2019-03-02T05:55:49.976Z,6.30
2019-03-02T05:58:18.741Z,6.10
2019-03-02T06:00:48.707Z,6.10
2019-03-02T06:03:18.860Z,6.00
2019-03-02T06:05:48.813Z,6.10
2019-03-02T06:08:18.828Z,6.30
2019-03-02T06:10:48.769Z,5.90
2019-03-02T06:13:18.966Z,6.00
2019-03-02T06:15:49.126Z,6.20
2019-03-02T06:18:19.658Z,6.20
2019-03-02T06:20:49.605Z,6.20
2019-03-02T06:23:19.639Z,6.10
2019-03-02T06:25:49.664Z,6.10
2019-03-02T06:28:22.947Z,6.10
2019-03-02T06:30:51.385Z,6.20
2019-03-02T06:33:31.292Z,6.20
2019-03-02T06:36:04.863Z,5.80
2019-03-02T06:38:33.091Z,5.60
2019-03-02T06:41:03.126Z,5.60
2019-03-02T06:43:33.077Z,5.60
2019-03-02T06:46:04.204Z,5.80
2019-03-02T06:48:34.391Z,6.00
2019-03-02T06:51:04.319Z,6.00
2019-03-02T06:53:37.063Z,5.80
2019-03-02T06:56:05.926Z,6.00
2019-03-02T06:58:35.983Z,6.10
2019-03-02T07:01:05.932Z,6.40
2019-03-02T07:03:36.013Z,5.90
2019-03-02T07:06:08.572Z,5.70
2019-03-02T07:08:38.167Z,5.90
2019-03-02T07:11:08.083Z,6.30
2019-03-02T07:13:38.291Z,6.40
2019-03-02T07:16:08.204Z,6.20
2019-03-02T07:19:09.510Z,6.00
2019-03-02T07:21:41.493Z,5.70
2019-03-02T07:24:11.109Z,5.60
2019-03-02T07:26:41.030Z,5.80
2019-03-02T07:29:13.821Z,5.90
2019-03-02T07:31:42.601Z,6.00
2019-03-02T07:34:12.659Z,5.80
2019-03-02T07:36:42.699Z,5.90
2019-03-02T07:39:12.670Z,6.10
2019-03-02T07:41:42.591Z,6.30
2019-03-02T07:44:12.631Z,6.30
2019-03-02T07:46:44.104Z,6.40
2019-03-02T07:49:14.375Z,6.30
2019-03-02T07:51:44.324Z,6.30
2019-03-02T07:54:14.289Z,6.40
2019-03-02T07:56:44.199Z,6.40
2019-03-02T07:59:14.146Z,6.40
2019-03-02T08:01:44.071Z,6.70
2019-03-02T08:04:14.086Z,6.40
2019-03-02T08:06:44.022Z,6.30
2019-03-02T08:09:13.976Z,6.30
2019-03-02T08:11:45.489Z,6.30
2019-03-02T08:14:16.206Z,6.70
2019-03-02T08:16:46.301Z,6.90
2019-03-02T08:19:16.250Z,7.00
2019-03-02T08:21:46.325Z,7.00
2019-03-02T08:24:16.273Z,6.90
2019-03-02T08:26:46.195Z,6.90
2019-03-02T08:29:17.766Z,6.90
2019-03-02T08:31:47.790Z,6.70
2019-03-02T08:34:17.760Z,6.30
2019-03-02T08:36:50.305Z,6.60
2019-03-02T08:39:19.253Z,6.70
2019-03-02T08:41:49.266Z,6.90
2019-03-02T08:44:19.890Z,6.90
2019-03-02T08:46:49.943Z,6.80
2019-03-02T08:49:19.966Z,6.70
2019-03-02T08:51:49.964Z,6.80
2019-03-02T08:54:21.546Z,6.80
2019-03-02T08:56:51.444Z,6.80
2019-03-02T08:59:21.398Z,6.40
2019-03-02T09:01:54.839Z,6.50
2019-03-02T09:04:23.074Z,6.80
2019-03-02T09:06:52.984Z,7.10
2019-03-02T09:09:22.942Z,7.00
2019-03-02T09:11:52.870Z,6.90
2019-03-02T09:14:22.822Z,7.10
2019-03-02T09:16:52.848Z,7.20
2019-03-02T09:19:24.137Z,7.20
2019-03-02T09:21:55.609Z,7.00
2019-03-02T09:24:25.739Z,7.00
2019-03-02T09:26:55.809Z,6.80
2019-03-02T09:29:25.839Z,6.70
2019-03-02T09:31:55.840Z,6.30
2019-03-02T09:34:27.444Z,6.40
2019-03-02T09:36:57.458Z,6.50
2019-03-02T09:39:27.562Z,6.70
2019-03-02T09:41:58.084Z,7.00
2019-03-02T09:44:32.691Z,6.70
2019-03-02T09:47:00.816Z,6.70
2019-03-02T09:52:01.183Z,6.50
2019-03-02T09:54:31.180Z,7.10
2019-03-02T09:57:01.105Z,7.20
2019-03-02T09:59:31.049Z,7.20
2019-03-02T10:02:01.001Z,7.00
2019-03-02T10:04:30.953Z,7.10
2019-03-02T10:07:01.935Z,7.20
2019-03-02T10:09:32.253Z,7.50
2019-03-02T10:12:02.287Z,7.30
2019-03-02T10:14:32.235Z,7.00
2019-03-02T10:17:02.700Z,7.00
2019-03-02T10:19:32.701Z,7.30
2019-03-02T10:22:02.790Z,7.20
2019-03-02T10:24:32.734Z,7.20
2019-03-02T10:27:02.667Z,7.00
2019-03-02T10:29:32.657Z,7.40
2019-03-02T10:32:04.425Z,7.60
2019-03-02T10:34:34.576Z,7.60
2019-03-02T10:37:07.243Z,7.70
2019-03-02T10:39:36.263Z,7.50
2019-03-02T10:42:06.211Z,7.50
2019-03-02T10:44:36.145Z,7.50
2019-03-02T10:47:06.233Z,7.60
2019-03-02T10:49:36.224Z,7.10
2019-03-02T10:52:06.177Z,7.30
2019-03-02T10:54:36.187Z,7.30
2019-03-02T10:57:06.218Z,7.20
2019-03-02T10:59:36.154Z,7.10
2019-03-02T11:02:06.469Z,7.50
2019-03-02T11:04:47.074Z,7.70
2019-03-02T11:07:34.946Z,7.60
2019-03-02T11:10:26.240Z,7.40
2019-03-02T11:13:33.490Z,7.40
2019-03-02T11:16:31.598Z,7.40
2019-03-02T11:19:20.610Z,7.70
2019-03-02T11:21:59.353Z,8.10
2019-03-02T11:25:06.406Z,7.90
2019-03-02T11:28:13.388Z,8.10
2019-03-02T11:30:55.802Z,8.10
2019-03-02T11:33:50.665Z,8.10
2019-03-02T11:36:55.014Z,8.10
2019-03-02T11:39:49.998Z,8.30
2019-03-02T11:42:27.722Z,8.30
2019-03-02T11:45:20.359Z,7.50
2019-03-02T11:48:24.429Z,7.10
2019-03-02T11:51:16.465Z,7.60
2019-03-02T11:54:04.218Z,7.70
2019-03-02T11:57:02.370Z,7.90
2019-03-02T11:59:42.021Z,8.30
2019-03-02T12:02:38.359Z,8.70
2019-03-02T12:05:31.353Z,8.50
2019-03-02T12:08:26.638Z,8.70
2019-03-02T12:11:07.073Z,9.00
2019-03-02T12:13:56.523Z,8.60
2019-03-02T12:16:35.110Z,8.80
2019-03-02T12:19:26.143Z,8.80
2019-03-02T12:22:12.779Z,8.60
2019-03-02T12:25:01.763Z,8.80
2019-03-02T12:27:55.026Z,9.00
2019-03-02T12:30:53.781Z,9.40
2019-03-02T12:36:43.254Z,9.60
2019-03-02T12:39:25.124Z,9.50
2019-03-02T12:42:26.693Z,9.70
2019-03-02T12:45:17.381Z,9.50
2019-03-02T12:47:56.642Z,9.70
2019-03-02T12:50:55.015Z,9.50
2019-03-02T12:53:48.624Z,9.70
2019-03-02T12:56:37.593Z,9.60
2019-03-02T12:59:25.412Z,9.60
2019-03-02T13:02:14.059Z,9.60
2019-03-02T13:05:06.094Z,9.90
2019-03-02T13:07:58.076Z,9.50
2019-03-02T13:10:34.049Z,9.80
2019-03-02T13:13:23.597Z,10.00
2019-03-02T13:16:30.631Z,9.90
2019-03-02T13:19:16.560Z,9.80
2019-03-02T13:22:01.813Z,9.80
2019-03-02T13:24:53.790Z,10.00
2019-03-02T13:27:34.190Z,10.20
2019-03-02T13:30:25.707Z,10.40
2019-03-02T13:33:15.819Z,10.50
2019-03-02T13:35:59.864Z,10.00
2019-03-02T13:38:33.570Z,10.00
2019-03-02T13:41:29.880Z,10.00
2019-03-02T13:44:06.016Z,10.10
2019-03-02T13:46:56.562Z,10.10
2019-03-02T13:50:00.865Z,10.20
2019-03-02T13:52:53.226Z,10.10
2019-03-02T13:55:45.956Z,10.20
2019-03-02T13:58:34.325Z,10.50
2019-03-02T14:01:16.494Z,10.20
2019-03-02T14:03:55.265Z,10.30
2019-03-02T14:06:59.373Z,10.40
2019-03-02T14:09:55.803Z,9.80
2019-03-02T14:12:38.881Z,9.80
2019-03-02T14:15:26.778Z,9.90
2019-03-02T14:18:07.814Z,9.50
2019-03-02T14:21:01.199Z,9.60
2019-03-02T14:23:56.416Z,9.60
2019-03-02T14:26:44.084Z,9.50
2019-03-02T14:29:19.977Z,9.40
2019-03-02T14:32:13.764Z,9.50
2019-03-02T14:35:11.649Z,9.40
2019-03-02T14:37:59.341Z,9.40
2019-03-02T14:40:38.194Z,9.50
2019-03-02T14:43:45.271Z,9.60
2019-03-02T14:46:24.809Z,9.70
2019-03-02T14:49:16.415Z,9.50
2019-03-02T14:52:14.386Z,9.50
2019-03-02T14:54:56.889Z,9.70
2019-03-02T14:57:37.478Z,9.40
2019-03-02T15:00:26.660Z,9.30
2019-03-02T15:03:14.989Z,8.80
2019-03-02T15:06:08.772Z,9.10
2019-03-02T15:08:55.562Z,9.40
2019-03-02T15:11:41.681Z,9.00
2019-03-02T15:14:48.840Z,8.90
2019-03-02T15:17:40.594Z,8.90
2019-03-02T15:20:19.736Z,9.30
2019-03-02T15:23:08.690Z,8.80
2019-03-02T15:25:57.686Z,8.60
2019-03-02T15:28:38.591Z,8.40
2019-03-02T15:31:30.477Z,8.30
2019-03-02T15:34:34.601Z,8.80
2019-03-02T15:37:13.498Z,9.30
2019-03-02T15:40:11.675Z,9.20
2019-03-02T15:42:59.696Z,9.00
2019-03-02T15:45:36.286Z,9.10
2019-03-02T15:48:18.769Z,9.10
2019-03-02T15:51:10.917Z,8.90
2019-03-02T15:56:56.245Z,9.40
2019-03-02T15:59:39.225Z,9.40
2019-03-02T16:02:25.992Z,9.40
2019-03-02T16:05:03.842Z,9.20
2019-03-02T16:07:49.957Z,9.40
2019-03-02T16:10:54.252Z,9.40
2019-03-02T16:13:33.902Z,9.20
2019-03-02T16:16:28.914Z,9.20
2019-03-02T16:19:09.172Z,9.40
2019-03-02T16:22:10.308Z,9.20
2019-03-02T16:25:05.384Z,9.30
2019-03-02T16:28:05.522Z,9.20
2019-03-02T16:30:53.669Z,9.30
2019-03-02T16:33:51.849Z,9.20
2019-03-02T16:36:50.030Z,9.10
2019-03-02T16:39:51.042Z,9.10
2019-03-02T16:42:40.021Z,9.20
2019-03-02T16:45:20.602Z,9.10
2019-03-02T16:48:09.703Z,9.20
2019-03-02T16:50:50.044Z,9.00
2019-03-02T16:53:31.308Z,9.10
2019-03-02T16:56:25.456Z,9.10
2019-03-02T16:59:05.230Z,9.00
2019-03-02T17:01:57.738Z,8.80
2019-03-02T17:04:33.428Z,8.80
2019-03-02T17:07:15.166Z,8.60
2019-03-02T17:10:00.369Z,8.10
2019-03-02T17:12:41.328Z,8.30
2019-03-02T17:15:23.665Z,8.20
2019-03-02T17:18:11.350Z,8.40
2019-03-02T17:20:46.181Z,8.60
2019-03-02T17:23:42.374Z,8.50
2019-03-02T17:26:33.696Z,8.40
2019-03-02T17:29:22.676Z,8.30
2019-03-02T17:32:18.613Z,8.30
2019-03-02T17:35:07.740Z,8.40
2019-03-02T17:38:08.077Z,8.40
2019-03-02T17:40:51.391Z,8.40
2019-03-02T17:43:46.525Z,8.40
2019-03-02T17:46:37.579Z,8.50
2019-03-02T17:49:29.843Z,8.20
2019-03-02T17:52:15.230Z,8.30
2019-03-02T17:54:57.067Z,8.20
2019-03-02T17:57:44.816Z,8.00
2019-03-02T18:00:46.084Z,7.50
2019-03-02T18:03:26.341Z,7.30
2019-03-02T18:06:05.722Z,7.00
2019-03-02T18:08:52.644Z,6.90
2019-03-02T18:11:46.495Z,6.90
2019-03-02T18:14:35.373Z,7.30
2019-03-02T18:17:33.499Z,7.30
2019-03-02T18:20:03.764Z,7.10
2019-03-02T18:22:35.088Z,6.90
2019-03-02T18:25:07.899Z,6.90
2019-03-02T18:27:38.713Z,7.00
2019-03-02T18:30:12.181Z,7.10
2019-03-02T18:32:42.170Z,7.40
2019-03-02T18:35:12.207Z,7.60
2019-03-02T18:37:42.721Z,7.90
2019-03-02T18:40:13.093Z,8.10
2019-03-02T18:42:43.015Z,8.00
2019-03-02T18:45:13.957Z,7.90
2019-03-02T18:47:43.900Z,8.00
2019-03-02T18:50:32.817Z,8.00
2019-03-02T18:53:06.105Z,8.00
2019-03-02T18:55:36.083Z,7.80
2019-03-02T18:58:07.788Z,7.90
2019-03-02T19:00:57.656Z,8.10
2019-03-02T19:03:27.470Z,8.10
2019-03-02T19:05:57.419Z,8.10
2019-03-02T19:08:27.366Z,8.00
2019-03-02T19:10:57.408Z,8.10
2019-03-02T19:13:27.434Z,8.10
2019-03-02T19:15:57.405Z,8.10
2019-03-02T19:18:27.340Z,8.10
2019-03-02T19:20:58.272Z,8.00
2019-03-02T19:23:28.297Z,7.90
2019-03-02T19:25:58.318Z,7.90
2019-03-02T19:28:28.257Z,7.80
2019-03-02T19:30:58.321Z,7.90
2019-03-02T19:33:28.366Z,7.80
2019-03-02T19:35:58.466Z,7.80
2019-03-02T19:38:28.497Z,7.80
2019-03-02T19:40:58.472Z,7.80
2019-03-02T19:43:28.400Z,7.80
2019-03-02T19:45:58.364Z,7.80
2019-03-02T19:48:28.288Z,7.80
2019-03-02T19:50:58.331Z,7.80
2019-03-02T19:53:28.259Z,7.90
2019-03-02T19:55:58.283Z,7.90
2019-03-02T19:58:28.229Z,7.90
2019-03-02T20:00:58.245Z,8.00
2019-03-02T20:03:28.266Z,8.00
2019-03-02T20:05:58.203Z,7.90
2019-03-02T20:08:28.290Z,7.90
2019-03-02T20:10:58.295Z,7.90
2019-03-02T20:13:28.243Z,7.80
2019-03-02T20:15:58.192Z,7.90
2019-03-02T20:18:28.271Z,7.80
2019-03-02T20:20:58.396Z,7.80
2019-03-02T20:23:36.944Z,7.90
2019-03-02T20:25:59.866Z,8.10
2019-03-02T20:28:29.880Z,8.20
2019-03-02T20:30:59.829Z,8.30
2019-03-02T20:33:29.786Z,8.30
2019-03-02T20:35:59.757Z,8.30
2019-03-02T20:38:29.698Z,8.30
2019-03-02T20:40:59.630Z,8.20
2019-03-02T20:43:29.654Z,8.30
2019-03-02T20:45:59.674Z,8.30
2019-03-02T20:48:29.601Z,8.40
2019-03-02T20:50:59.552Z,8.40
2019-03-02T20:53:29.498Z,8.20
2019-03-02T20:55:59.487Z,8.10
2019-03-02T20:58:29.411Z,8.20
2019-03-02T21:00:59.449Z,8.30
2019-03-02T21:03:29.397Z,8.30
2019-03-02T21:05:59.375Z,8.40
2019-03-02T21:08:29.339Z,8.40
2019-03-02T21:10:59.361Z,8.40
2019-03-02T21:13:29.376Z,8.50
2019-03-02T21:15:59.518Z,8.40
2019-03-02T21:18:29.458Z,8.50
2019-03-02T21:20:59.423Z,8.50
2019-03-02T21:23:29.368Z,8.50
2019-03-02T21:25:59.306Z,8.60
2019-03-02T21:28:29.427Z,8.50
2019-03-02T21:30:59.506Z,8.40
2019-03-02T21:33:29.498Z,8.30
2019-03-02T21:35:59.443Z,8.30
2019-03-02T21:38:30.091Z,8.20
2019-03-02T21:41:00.024Z,8.20
2019-03-02T21:43:30.128Z,8.20
2019-03-02T21:46:00.061Z,8.20
2019-03-02T21:48:30.150Z,8.20
2019-03-02T21:51:00.576Z,8.10
2019-03-02T21:53:30.559Z,8.10
2019-03-02T21:56:00.464Z,8.00
2019-03-02T21:58:30.440Z,8.10
2019-03-02T22:01:00.460Z,8.00
2019-03-02T22:03:30.480Z,7.90
2019-03-02T22:06:00.440Z,8.00
2019-03-02T22:08:30.542Z,8.00
2019-03-02T22:11:06.204Z,8.00
2019-03-02T22:13:36.941Z,8.10
2019-03-02T22:16:07.064Z,8.10
2019-03-02T22:18:37.016Z,8.10
2019-03-02T22:21:06.951Z,8.10
2019-03-02T22:23:36.892Z,8.10
2019-03-02T22:26:06.929Z,8.00
2019-03-02T22:28:37.027Z,8.00
2019-03-02T22:31:07.033Z,8.10
2019-03-02T22:33:37.091Z,8.10
2019-03-02T22:36:07.099Z,8.10
2019-03-02T22:38:37.060Z,8.10
2019-03-02T22:41:07.123Z,8.10
2019-03-02T22:43:37.153Z,8.00
2019-03-02T22:46:07.125Z,7.90
2019-03-02T22:48:37.509Z,8.10
2019-03-02T22:51:07.581Z,8.20
2019-03-02T22:53:37.552Z,8.20
2019-03-02T22:56:07.723Z,8.20
2019-03-02T22:58:36.888Z,8.00
2019-03-02T23:01:42.987Z,8.10
2019-03-02T23:04:12.980Z,8.30
2019-03-02T23:06:43.040Z,8.40
2019-03-02T23:09:13.032Z,8.50
2019-03-02T23:11:42.960Z,8.40
2019-03-02T23:14:13.134Z,8.20
2019-03-02T23:16:43.046Z,8.20
2019-03-02T23:19:13.120Z,8.40
2019-03-02T23:21:43.203Z,8.40
2019-03-02T23:24:13.236Z,8.50
2019-03-02T23:26:43.333Z,8.50
2019-03-02T23:29:13.381Z,8.60
2019-03-02T23:31:44.973Z,8.80
2019-03-02T23:34:15.102Z,8.60
2019-03-02T23:36:45.057Z,8.50
2019-03-02T23:39:15.016Z,8.80
2019-03-02T23:41:45.017Z,8.80
2019-03-02T23:44:15.071Z,8.80
2019-03-02T23:46:45.079Z,8.90
2019-03-02T23:49:15.064Z,8.70
2019-03-02T23:51:44.987Z,8.40
2019-03-02T23:54:15.026Z,8.80
2019-03-02T23:56:45.050Z,8.70
2019-03-02T23:59:14.990Z,8.90
